Time;durP1;ratioP1;P1;durP2;ratioP2;P2;SDS_P1;SDS_P2;PMS_P1;PMS_P2;Temp;Humidity;BMP_temperature;BMP_pressure;BME280_temperature;BME280_humidity;BME280_pressure;Samples;Min_cycle;Max_cycle;Signal;HPM_P1;HPM_P2
2023/12/18 00:02:34;;;;;;;16.58;6.10;;;15.10;85.20;;;;;;4186932;28;20059;-52
2023/12/18 00:05:15;;;;;;;10.77;5.18;;;15.10;85.20;;;;;;4171617;28;20631;-55
2023/12/18 00:07:56;;;;;;;15.13;5.68;;;15.10;85.40;;;;;;4188473;28;20059;-53
2023/12/18 00:10:37;;;;;;;10.13;4.65;;;15.10;85.30;;;;;;4171480;28;20554;-52
2023/12/18 00:13:18;;;;;;;16.02;5.35;;;15.10;85.50;;;;;;4172223;28;20118;-51
2023/12/18 00:16:00;;;;;;;16.23;5.50;;;15.10;85.60;;;;;;4179500;28;20130;-52
2023/12/18 00:18:41;;;;;;;17.02;5.18;;;15.00;85.50;;;;;;4172822;28;20518;-50
2023/12/18 00:21:22;;;;;;;15.02;5.07;;;15.10;85.60;;;;;;4187662;28;20047;-52
2023/12/18 00:24:03;;;;;;;17.00;5.65;;;15.00;85.40;;;;;;4180490;28;20063;-61
2023/12/18 00:26:44;;;;;;;9.98;4.22;;;15.00;85.40;;;;;;4155280;28;20119;-54
2023/12/18 00:29:25;;;;;;;21.85;5.50;;;15.00;85.40;;;;;;4172753;28;20052;-55
2023/12/18 00:32:08;;;;;;;10.77;4.55;;;15.00;85.90;;;;;;4171189;28;20052;-60
2023/12/18 00:34:49;;;;;;;18.48;6.03;;;15.00;86.00;;;;;;4170565;28;20052;-55
2023/12/18 00:37:30;;;;;;;10.60;4.70;;;15.00;85.90;;;;;;4188279;28;20060;-54
2023/12/18 00:40:12;;;;;;;10.10;4.85;;;15.00;86.20;;;;;;4187567;28;20068;-53
2023/12/18 00:42:53;;;;;;;10.15;4.32;;;15.00;86.20;;;;;;4172040;28;20060;-55
2023/12/18 00:45:34;;;;;;;14.25;5.32;;;15.00;86.00;;;;;;4171730;28;20047;-55
2023/12/18 00:48:16;;;;;;;13.18;4.70;;;15.00;86.10;;;;;;4162456;28;20514;-56
2023/12/18 00:50:58;;;;;;;10.77;4.43;;;15.00;86.10;;;;;;4169341;28;20365;-54
2023/12/18 00:53:38;;;;;;;11.90;4.60;;;15.00;86.20;;;;;;4188429;28;20407;-53
2023/12/18 00:56:20;;;;;;;13.05;4.57;;;15.00;86.30;;;;;;4188223;28;20159;-55
2023/12/18 00:59:01;;;;;;;9.77;4.28;;;15.00;86.40;;;;;;4175454;28;20111;-52
2023/12/18 01:01:43;;;;;;;12.68;5.45;;;15.00;87.10;;;;;;4187884;28;20194;-54
2023/12/18 01:04:25;;;;;;;;;;;15.10;87.20;;;;;;4188031;28;20056;-56
2023/12/18 01:07:06;;;;;;;7.35;4.57;;;15.10;86.90;;;;;;4186311;28;19931;-55
2023/12/18 01:09:47;;;;;;;12.73;4.80;;;15.20;87.00;;;;;;4187356;28;20043;-56
2023/12/18 01:12:28;;;;;;;11.27;4.97;;;15.30;86.80;;;;;;4170013;28;20416;-57
2023/12/18 01:15:10;;;;;;;13.75;5.15;;;15.20;86.20;;;;;;4181973;28;20055;-57
2023/12/18 01:17:50;;;;;;;11.85;4.70;;;15.30;86.10;;;;;;4187688;28;20495;-63
2023/12/18 01:20:33;;;;;;;7.80;4.22;;;15.30;86.00;;;;;;4187786;28;20569;-63
2023/12/18 01:23:14;;;;;;;14.77;5.40;;;15.20;85.80;;;;;;4186685;28;20498;-62
2023/12/18 01:25:55;;;;;;;8.77;4.38;;;15.30;85.70;;;;;;4185516;28;20059;-62
2023/12/18 01:28:36;;;;;;;13.77;4.43;;;15.30;85.90;;;;;;4187540;28;20070;-62
2023/12/18 01:31:23;;;;;;;10.50;4.20;;;15.30;86.40;;;;;;4184972;28;20048;-64
2023/12/18 01:34:05;;;;;;;13.70;4.75;;;15.30;86.20;;;;;;4159972;28;20147;-63
2023/12/18 01:36:47;;;;;;;11.52;4.75;;;15.30;86.20;;;;;;4185831;28;20056;-63
2023/12/18 01:39:28;;;;;;;14.52;4.45;;;15.30;86.30;;;;;;4187314;28;20067;-62
2023/12/18 01:42:10;;;;;;;13.35;4.07;;;15.40;86.70;;;;;;4187192;28;20372;-62
2023/12/18 01:44:51;;;;;;;14.20;5.57;;;15.50;86.60;;;;;;4169996;28;20076;-62
2023/12/18 01:47:32;;;;;;;10.07;3.85;;;15.60;86.20;;;;;;4175961;28;20415;-64
2023/12/18 01:50:13;;;;;;;11.35;4.90;;;15.70;85.70;;;;;;4169976;28;20059;-62
2023/12/18 01:52:55;;;;;;;12.52;4.45;;;15.80;85.30;;;;;;4153690;28;20103;-62
2023/12/18 01:55:36;;;;;;;12.73;5.05;;;15.80;85.10;;;;;;4172750;28;20063;-62
2023/12/18 01:58:18;;;;;;;6.75;4.72;;;15.90;84.80;;;;;;4186157;28;20059;-62
2023/12/18 02:01:00;;;;;;;7.72;3.80;;;15.90;85.70;;;;;;4186926;28;20102;-62
2023/12/18 02:03:42;;;;;;;10.38;4.65;;;15.90;84.70;;;;;;4187459;28;20051;-61
2023/12/18 02:06:25;;;;;;;14.07;5.13;;;16.00;84.70;;;;;;4185254;28;20813;-61
2023/12/18 02:09:07;;;;;;;10.35;3.97;;;16.00;84.60;;;;;;4187040;28;20059;-62
2023/12/18 02:11:48;;;;;;;10.02;4.13;;;16.00;84.60;;;;;;4153500;28;20520;-61
2023/12/18 02:14:29;;;;;;;15.13;4.70;;;16.00;84.40;;;;;;4169511;28;20124;-62
2023/12/18 02:17:10;;;;;;;13.02;4.03;;;16.10;84.30;;;;;;4169587;28;20079;-62
2023/12/18 02:20:04;;;;;;;11.43;4.35;;;16.20;85.00;;;;;;4169073;28;20078;-56
2023/12/18 02:22:51;;;;;;;15.55;4.45;;;16.10;83.70;;;;;;4178490;28;20067;-55
2023/12/18 02:25:32;;;;;;;12.50;4.78;;;16.20;83.80;;;;;;4169300;28;20186;-60
2023/12/18 02:28:15;;;;;;;15.25;4.30;;;16.20;83.80;;;;;;4170442;28;20059;-57
2023/12/18 02:30:57;;;;;;;13.00;4.53;;;16.20;83.50;;;;;;4170296;28;20159;-57
2023/12/18 02:33:38;;;;;;;11.48;4.43;;;16.20;83.80;;;;;;4169878;28;20515;-57
2023/12/18 02:36:19;;;;;;;15.15;4.32;;;16.10;83.70;;;;;;4169682;28;20052;-57
2023/12/18 02:39:02;;;;;;;11.23;3.97;;;16.10;83.90;;;;;;4171661;28;20243;-57
2023/12/18 02:41:42;;;;;;;12.95;4.30;;;16.10;84.00;;;;;;4169703;28;20076;-61
2023/12/18 02:44:24;;;;;;;8.70;3.90;;;16.20;83.90;;;;;;4153408;28;20052;-64
2023/12/18 02:47:04;;;;;;;13.50;4.45;;;16.20;83.70;;;;;;4169770;28;20076;-62
2023/12/18 02:49:45;;;;;;;11.00;4.13;;;16.30;84.40;;;;;;4169979;28;21858;-57
2023/12/18 02:52:27;;;;;;;10.20;4.15;;;16.30;83.40;;;;;;4169183;28;20183;-61
2023/12/18 02:55:11;;;;;;;11.88;4.05;;;16.30;83.20;;;;;;4160312;28;20052;-62
2023/12/18 02:57:52;;;;;;;7.30;3.28;;;16.20;83.40;;;;;;4160030;28;20102;-62
2023/12/18 03:00:33;;;;;;;10.57;3.28;;;16.30;83.50;;;;;;4156036;28;20060;-62
2023/12/18 03:03:14;;;;;;;12.35;4.05;;;16.20;83.90;;;;;;4186340;28;20051;-62
2023/12/18 03:05:55;;;;;;;12.77;4.15;;;16.20;83.70;;;;;;4186238;28;20447;-62
2023/12/18 03:08:36;;;;;;;12.68;3.75;;;16.20;83.50;;;;;;4186435;28;20059;-62
2023/12/18 03:11:18;;;;;;;13.70;3.75;;;16.20;83.50;;;;;;4177808;28;20076;-63
2023/12/18 03:13:58;;;;;;;9.70;3.70;;;16.30;83.50;;;;;;4167169;28;20416;-63
2023/12/18 03:16:40;;;;;;;12.05;3.55;;;16.30;83.60;;;;;;4158847;28;20649;-63
2023/12/18 03:19:21;;;;;;;10.00;3.40;;;16.30;83.40;;;;;;4169817;28;20056;-61
2023/12/18 03:22:01;;;;;;;10.60;2.90;;;16.30;83.20;;;;;;4157671;28;20061;-62
2023/12/18 03:24:43;;;;;;;12.73;3.63;;;16.30;83.50;;;;;;4169724;28;20068;-63
2023/12/18 03:27:26;;;;;;;13.23;3.95;;;16.30;83.30;;;;;;4162313;28;20048;-62
2023/12/18 03:30:07;;;;;;;9.80;3.58;;;16.40;83.20;;;;;;4169736;28;20163;-63
2023/12/18 03:32:49;;;;;;;14.82;3.78;;;16.40;83.00;;;;;;4169039;28;20479;-62
2023/12/18 03:35:30;;;;;;;7.60;3.47;;;16.40;83.00;;;;;;4168592;28;20044;-63
2023/12/18 03:38:11;;;;;;;11.90;3.63;;;16.40;83.00;;;;;;4172617;28;20060;-61
2023/12/18 03:40:52;;;;;;;13.10;4.13;;;16.30;82.90;;;;;;4172362;28;20549;-61
2023/12/18 03:43:34;;;;;;;11.32;3.40;;;16.30;83.20;;;;;;4170270;28;20158;-61
2023/12/18 03:46:15;;;;;;;10.05;3.60;;;16.30;83.30;;;;;;4184746;28;20060;-61
2023/12/18 03:48:56;;;;;;;11.20;3.40;;;16.40;83.50;;;;;;4189200;28;20051;-61
2023/12/18 03:51:37;;;;;;;13.82;3.60;;;16.40;83.40;;;;;;4188505;28;20055;-61
2023/12/18 03:54:18;;;;;;;9.98;3.38;;;16.40;83.20;;;;;;4188544;28;20075;-62
2023/12/18 03:56:59;;;;;;;11.77;4.05;;;16.40;83.10;;;;;;4189342;28;20035;-63
2023/12/18 03:59:42;;;;;;;9.32;3.67;;;16.40;83.00;;;;;;4189220;28;20052;-62
2023/12/18 04:02:22;;;;;;;10.13;3.38;;;16.40;83.10;;;;;;4173611;28;20087;-62
2023/12/18 04:05:04;;;;;;;8.75;4.28;;;16.30;83.20;;;;;;4188270;28;20051;-54
2023/12/18 04:07:46;;;;;;;10.02;4.53;;;16.30;83.40;;;;;;4178918;28;20060;-55
2023/12/18 04:10:27;;;;;;;8.80;4.03;;;16.30;83.40;;;;;;4188195;28;20060;-53
2023/12/18 04:13:08;;;;;;;18.88;5.22;;;16.40;83.30;;;;;;4172076;28;20063;-54
2023/12/18 04:15:51;;;;;;;11.93;5.00;;;16.40;83.10;;;;;;4187486;28;20561;-52
2023/12/18 04:18:32;;;;;;;12.35;4.70;;;16.40;83.20;;;;;;4187143;28;20064;-55
2023/12/18 04:21:13;;;;;;;10.40;5.10;;;16.40;83.20;;;;;;4188418;28;20055;-54
2023/12/18 04:23:54;;;;;;;14.50;5.90;;;16.40;82.90;;;;;;4171329;28;20047;-55
2023/12/18 04:26:35;;;;;;;12.88;5.03;;;16.50;82.70;;;;;;4171563;28;20067;-55
2023/12/18 04:29:17;;;;;;;15.82;6.28;;;16.50;83.60;;;;;;4170692;28;20102;-53
2023/12/18 04:32:00;;;;;;;13.85;6.30;;;16.50;82.70;;;;;;4172186;28;20175;-55
2023/12/18 04:34:40;;;;;;;14.05;6.32;;;16.50;82.30;;;;;;4164483;28;20049;-54
2023/12/18 04:37:22;;;;;;;11.93;6.13;;;16.50;82.50;;;;;;4168474;28;20048;-54
2023/12/18 04:40:03;;;;;;;10.43;6.05;;;16.60;82.30;;;;;;4171580;28;20048;-54
2023/12/18 04:42:44;;;;;;;14.02;6.00;;;16.50;82.30;;;;;;4187411;28;20182;-61
2023/12/18 04:45:25;;;;;;;15.52;6.30;;;16.50;82.60;;;;;;4188290;28;20190;-61
2023/12/18 04:48:08;;;;;;;15.70;6.25;;;16.50;82.80;;;;;;4186994;28;20071;-54
2023/12/18 04:50:49;;;;;;;14.13;6.32;;;16.50;82.70;;;;;;4186273;28;20125;-52
2023/12/18 04:53:33;;;;;;;15.70;6.90;;;16.50;82.70;;;;;;4186420;28;20183;-54
2023/12/18 04:56:14;;;;;;;10.55;6.20;;;16.50;82.50;;;;;;4171642;28;20055;-54
2023/12/18 04:58:55;;;;;;;13.93;5.97;;;16.50;82.20;;;;;;4171861;28;20115;-50
2023/12/18 05:01:36;;;;;;;15.68;5.95;;;16.50;82.50;;;;;;4170650;28;20112;-55
2023/12/18 05:04:19;;;;;;;12.23;5.80;;;16.50;82.60;;;;;;4171387;28;20187;-51
2023/12/18 05:07:00;;;;;;;10.27;5.57;;;16.50;82.70;;;;;;4167662;28;20052;-55
2023/12/18 05:09:41;;;;;;;11.73;5.45;;;16.40;82.70;;;;;;4181901;28;20048;-52
2023/12/18 05:12:22;;;;;;;13.25;5.47;;;16.50;83.40;;;;;;4167446;28;20075;-56
2023/12/18 05:15:05;;;;;;;13.65;5.93;;;16.50;82.50;;;;;;4170105;28;20550;-51
2023/12/18 05:17:47;;;;;;;11.13;6.45;;;16.50;82.40;;;;;;4171874;28;20052;-54
2023/12/18 05:20:30;;;;;;;14.25;5.22;;;16.50;82.50;;;;;;4187100;28;20043;-54
2023/12/18 05:23:11;;;;;;;12.45;5.90;;;16.60;82.50;;;;;;4187175;28;20055;-51
2023/12/18 05:25:52;;;;;;;13.57;6.65;;;16.60;82.30;;;;;;4186990;28;20483;-54
2023/12/18 05:28:34;;;;;;;17.85;6.50;;;16.60;81.90;;;;;;4187267;28;20527;-53
2023/12/18 05:31:16;;;;;;;12.48;4.72;;;16.60;81.90;;;;;;4157149;28;20079;-53
2023/12/18 05:33:57;;;;;;;11.98;5.38;;;16.60;82.00;;;;;;4171116;28;20487;-54
2023/12/18 05:36:39;;;;;;;13.48;5.43;;;16.60;82.00;;;;;;4170928;28;20044;-54
2023/12/18 05:39:20;;;;;;;12.65;5.47;;;16.60;82.30;;;;;;4170645;28;20064;-53
2023/12/18 05:42:02;;;;;;;11.65;4.97;;;16.50;82.30;;;;;;4169826;28;20048;-55
2023/12/18 05:44:44;;;;;;;13.63;6.25;;;16.60;82.20;;;;;;4162579;28;20056;-54
2023/12/18 05:47:25;;;;;;;11.90;5.18;;;16.60;82.40;;;;;;4171303;28;20105;-52
2023/12/18 05:50:07;;;;;;;14.75;5.90;;;16.60;82.20;;;;;;4170730;28;20071;-53
2023/12/18 05:52:49;;;;;;;8.95;5.03;;;16.60;82.10;;;;;;4170607;28;20491;-53
2023/12/18 05:55:30;;;;;;;13.48;5.75;;;16.60;82.30;;;;;;4170828;28;20775;-55
2023/12/18 05:58:11;;;;;;;10.75;5.57;;;16.60;82.30;;;;;;4186872;28;20455;-53
2023/12/18 06:00:52;;;;;;;12.82;5.90;;;16.60;82.90;;;;;;4164681;28;20059;-51
2023/12/18 06:03:33;;;;;;;15.15;5.32;;;16.70;81.80;;;;;;4156504;28;20052;-54
2023/12/18 06:06:15;;;;;;;8.55;5.13;;;16.60;81.80;;;;;;4178946;28;20494;-54
2023/12/18 06:08:57;;;;;;;13.00;5.72;;;16.60;81.80;;;;;;4169962;28;20162;-53
2023/12/18 06:11:38;;;;;;;13.18;5.90;;;16.60;81.90;;;;;;4162032;28;20168;-53
2023/12/18 06:14:19;;;;;;;9.48;5.45;;;16.70;81.90;;;;;;4153347;28;20052;-54
2023/12/18 06:17:00;;;;;;;11.88;4.90;;;16.60;82.00;;;;;;4169963;28;20057;-57
2023/12/18 06:19:41;;;;;;;9.75;5.18;;;16.50;82.10;;;;;;4168628;28;20056;-53
2023/12/18 06:22:23;;;;;;;12.32;5.32;;;16.50;82.50;;;;;;4169471;28;20056;-55
2023/12/18 06:25:06;;;;;;;13.48;5.85;;;16.60;82.50;;;;;;4170264;28;20099;-54
2023/12/18 06:27:47;;;;;;;12.00;5.18;;;16.60;82.10;;;;;;4170158;28;20051;-59
2023/12/18 06:30:29;;;;;;;10.65;5.68;;;16.60;82.20;;;;;;4170128;28;20052;-58
2023/12/18 06:33:10;;;;;;;11.32;4.90;;;16.60;82.70;;;;;;4169173;28;20056;-59
2023/12/18 06:35:51;;;;;;;15.57;6.47;;;16.70;82.70;;;;;;4172993;28;20056;-58
2023/12/18 06:38:32;;;;;;;15.00;5.90;;;16.80;82.30;;;;;;4171041;28;20170;-59
2023/12/18 06:41:15;;;;;;;14.77;5.22;;;16.80;81.80;;;;;;4185126;28;20052;-58
2023/12/18 06:43:56;;;;;;;13.57;5.70;;;16.90;81.60;;;;;;4185595;28;20419;-58
2023/12/18 06:46:37;;;;;;;10.45;5.75;;;16.90;81.40;;;;;;4169525;28;20118;-59
2023/12/18 06:49:18;;;;;;;11.75;6.35;;;16.90;81.10;;;;;;4169340;28;20056;-59
2023/12/18 06:51:59;;;;;;;16.70;7.28;;;16.90;81.00;;;;;;4173887;28;20182;-59
2023/12/18 06:54:40;;;;;;;14.18;5.90;;;16.80;81.30;;;;;;4154201;28;20057;-58
2023/12/18 06:57:23;;;;;;;11.30;5.85;;;16.70;81.50;;;;;;4175164;28;20060;-57
2023/12/18 07:00:04;;;;;;;15.60;6.30;;;16.70;81.90;;;;;;4184244;28;20583;-58
2023/12/18 07:02:45;;;;;;;11.00;5.30;;;16.60;82.20;;;;;;4169364;28;20097;-67
2023/12/18 07:05:29;;;;;;;10.68;6.18;;;16.60;82.30;;;;;;4173311;28;20064;-64
2023/12/18 07:08:10;;;;;;;13.00;5.93;;;16.70;82.20;;;;;;4185451;28;20506;-64
2023/12/18 07:10:51;;;;;;;17.75;5.78;;;16.70;81.90;;;;;;4155804;28;20060;-65
2023/12/18 07:13:34;;;;;;;15.82;5.88;;;16.70;81.70;;;;;;4173500;28;20090;-65
2023/12/18 07:16:20;;;;;;;13.73;6.45;;;16.70;81.60;;;;;;4189075;28;20121;-67
2023/12/18 07:19:01;;;;;;;13.77;5.25;;;16.70;81.50;;;;;;4187860;28;20055;-66
2023/12/18 07:21:42;;;;;;;12.68;6.30;;;16.60;81.70;;;;;;4186499;28;20129;-66
2023/12/18 07:24:23;;;;;;;13.07;4.90;;;16.60;82.00;;;;;;4181343;28;20052;-67
2023/12/18 07:27:04;;;;;;;17.25;6.05;;;16.70;82.10;;;;;;4189564;28;20613;-66
2023/12/18 07:29:47;;;;;;;14.35;4.85;;;16.70;81.70;;;;;;4183367;28;20194;-69
2023/12/18 07:32:28;;;;;;;17.63;5.60;;;16.70;81.50;;;;;;4172221;28;20166;-58
2023/12/18 07:35:09;;;;;;;9.15;4.40;;;16.70;81.30;;;;;;4173475;28;20575;-55
2023/12/18 07:37:50;;;;;;;15.25;5.55;;;16.70;80.60;;;;;;4188867;28;20125;-56
2023/12/18 07:40:31;;;;;;;13.52;5.43;;;16.80;79.40;;;;;;4188005;28;20510;-57
2023/12/18 07:43:12;;;;;;;14.32;6.28;;;16.80;78.50;;;;;;4187173;28;20059;-55
2023/12/18 07:45:55;;;;;;;14.13;6.00;;;16.70;77.80;;;;;;4188507;28;20707;-56
2023/12/18 07:48:38;;;;;;;15.23;5.47;;;16.70;77.30;;;;;;4188513;28;20059;-56
2023/12/18 07:51:20;;;;;;;13.40;5.53;;;16.70;77.20;;;;;;4188378;28;20115;-58
2023/12/18 07:54:03;;;;;;;13.90;4.72;;;16.70;76.90;;;;;;4188541;28;20059;-55
2023/12/18 07:56:44;;;;;;;10.00;4.30;;;16.70;76.20;;;;;;4182001;28;20064;-56
2023/12/18 07:59:25;;;;;;;7.78;3.92;;;16.70;75.70;;;;;;4171518;28;20055;-54
2023/12/18 08:02:09;;;;;;;13.43;5.85;;;16.60;75.70;;;;;;4187960;28;20137;-55
2023/12/18 08:04:49;;;;;;;9.38;5.50;;;16.60;75.50;;;;;;4182912;28;20701;-55
2023/12/18 08:07:31;;;;;;;17.27;6.15;;;16.50;75.40;;;;;;4188420;28;20489;-55
2023/12/18 08:10:13;;;;;;;13.60;6.28;;;16.40;75.40;;;;;;4170982;28;20083;-52
2023/12/18 08:12:53;;;;;;;14.13;7.50;;;16.40;75.60;;;;;;4156446;28;20560;-55
2023/12/18 08:15:35;;;;;;;12.05;5.10;;;16.40;75.40;;;;;;4170348;28;20072;-52
2023/12/18 08:18:17;;;;;;;11.13;4.78;;;16.40;75.20;;;;;;4170679;28;20059;-57
2023/12/18 08:20:58;;;;;;;13.60;5.65;;;16.40;75.30;;;;;;4174712;28;20048;-57
2023/12/18 08:23:39;;;;;;;16.15;5.85;;;16.30;75.10;;;;;;4187398;28;20051;-59
2023/12/18 08:26:22;;;;;;;11.20;5.68;;;16.30;75.00;;;;;;4171846;28;20047;-54
2023/12/18 08:29:04;;;;;;;11.27;6.80;;;16.30;74.90;;;;;;4171329;28;20526;-55
2023/12/18 08:31:47;;;;;;;10.25;5.78;;;16.20;75.00;;;;;;4186813;28;20097;-58
2023/12/18 08:34:29;;;;;;;18.63;7.38;;;16.20;75.30;;;;;;4188565;28;20066;-55
2023/12/18 08:37:10;;;;;;;7.30;3.50;;;16.20;75.60;;;;;;4187246;28;20120;-59
2023/12/18 08:39:52;;;;;;;18.33;6.93;;;16.20;75.30;;;;;;4188379;28;20048;-58
2023/12/18 08:42:33;;;;;;;11.00;3.13;;;16.20;74.90;;;;;;4171493;28;20522;-58
2023/12/18 08:45:14;;;;;;;14.40;7.95;;;16.30;75.00;;;;;;4170545;28;20060;-59
2023/12/18 08:47:59;;;;;;;20.80;7.88;;;16.30;74.70;;;;;;4188184;28;20180;-58
2023/12/18 08:50:41;;;;;;;18.35;7.47;;;16.30;74.60;;;;;;4177809;28;20048;-57
2023/12/18 08:53:22;;;;;;;16.80;8.68;;;16.20;74.60;;;;;;4171017;28;20083;-52
2023/12/18 08:56:04;;;;;;;18.75;7.57;;;16.20;74.60;;;;;;4171948;28;20102;-54
2023/12/18 08:58:45;;;;;;;12.63;6.97;;;16.20;74.70;;;;;;4183749;28;20075;-55
2023/12/18 09:01:26;;;;;;;19.17;7.65;;;16.20;74.70;;;;;;4177950;28;20230;-53
2023/12/18 09:04:07;;;;;;;15.80;6.47;;;16.20;74.50;;;;;;4172703;28;20055;-54
2023/12/18 09:06:50;;;;;;;19.20;7.43;;;16.20;74.20;;;;;;4167334;28;20051;-52
2023/12/18 09:09:31;;;;;;;13.55;6.85;;;16.20;74.00;;;;;;4170269;28;20067;-55
2023/12/18 09:12:13;;;;;;;15.07;7.18;;;16.20;74.00;;;;;;4174930;28;20202;-53
2023/12/18 09:14:54;;;;;;;10.23;6.45;;;16.10;73.80;;;;;;4175497;28;20137;-55
2023/12/18 09:17:35;;;;;;;11.88;6.20;;;16.10;73.80;;;;;;4168493;28;20503;-52
2023/12/18 09:20:16;;;;;;;20.05;7.43;;;16.00;74.00;;;;;;4167378;28;20064;-53
2023/12/18 09:22:59;;;;;;;18.60;5.80;;;15.90;74.20;;;;;;4171376;28;20067;-53
2023/12/18 09:25:40;;;;;;;12.45;5.57;;;15.90;74.40;;;;;;4182344;28;20047;-54
2023/12/18 09:28:21;;;;;;;13.82;7.47;;;15.80;75.40;;;;;;4168521;28;20060;-52
2023/12/18 09:31:02;;;;;;;9.20;6.13;;;15.80;74.70;;;;;;4167639;28;20055;-53
2023/12/18 09:33:44;;;;;;;14.57;7.75;;;15.70;74.80;;;;;;4167568;28;20146;-51
2023/12/18 09:36:25;;;;;;;19.88;8.18;;;15.60;75.00;;;;;;4166830;28;20059;-54
2023/12/18 09:39:08;;;;;;;11.77;5.85;;;15.60;76.00;;;;;;4168484;28;20137;-55
2023/12/18 09:41:50;;;;;;;14.27;6.97;;;15.50;75.40;;;;;;4169616;28;20140;-52
2023/12/18 09:44:31;;;;;;;24.58;8.05;;;15.50;75.60;;;;;;4171959;28;20256;-55
2023/12/18 09:47:13;;;;;;;;;;;15.50;75.70;;;;;;4168169;28;20047;-53
2023/12/18 09:49:56;;;;;;;;;;;15.40;75.90;;;;;;4168000;28;19931;-53
2023/12/18 09:52:40;;;;;;;21.25;7.53;;;15.30;76.00;;;;;;4175925;28;19931;-54
2023/12/18 09:55:23;;;;;;;19.35;9.80;;;15.30;76.50;;;;;;4168073;28;20060;-51
2023/12/18 09:58:06;;;;;;;19.65;10.02;;;15.30;76.90;;;;;;4169303;28;20067;-54
2023/12/18 10:00:48;;;;;;;23.88;10.30;;;15.30;76.80;;;;;;4170665;28;20056;-51
2023/12/18 10:03:29;;;;;;;18.30;8.35;;;15.40;76.50;;;;;;4168046;28;20230;-50
2023/12/18 10:06:10;;;;;;;15.93;7.93;;;15.40;76.20;;;;;;4168186;28;20920;-49
2023/12/18 10:08:51;;;;;;;11.73;6.75;;;15.40;75.90;;;;;;4168554;28;20091;-54
2023/12/18 10:11:34;;;;;;;20.52;9.13;;;15.40;75.80;;;;;;4154670;28;20051;-56
2023/12/18 10:14:15;;;;;;;20.85;9.40;;;15.40;75.80;;;;;;4182642;28;20105;-55
2023/12/18 10:16:56;;;;;;;16.60;9.45;;;15.40;75.70;;;;;;4172940;28;20094;-54
2023/12/18 10:19:38;;;;;;;17.25;6.85;;;15.30;75.60;;;;;;4175995;28;20105;-53
2023/12/18 10:22:19;;;;;;;19.45;8.88;;;15.30;75.70;;;;;;4169362;28;20052;-56
2023/12/18 10:25:01;;;;;;;17.83;9.35;;;15.30;76.00;;;;;;4179875;28;20408;-53
2023/12/18 10:27:46;;;;;;;13.18;6.93;;;15.20;76.10;;;;;;4169389;28;20056;-55
2023/12/18 10:30:29;;;;;;;22.38;9.27;;;15.30;76.30;;;;;;4180672;28;20161;-55
2023/12/18 10:33:12;;;;;;;14.30;9.38;;;15.20;76.30;;;;;;4170863;28;20052;-52
2023/12/18 10:35:54;;;;;;;19.15;8.25;;;15.20;76.30;;;;;;4167367;28;20083;-55
2023/12/18 10:38:36;;;;;;;12.27;8.07;;;15.20;76.40;;;;;;4170102;28;20048;-58
2023/12/18 10:41:21;;;;;;;14.05;6.65;;;15.20;76.40;;;;;;4175333;28;20064;-59
2023/12/18 10:44:04;;;;;;;22.33;9.82;;;15.10;76.60;;;;;;4181929;28;20594;-59
2023/12/18 10:46:47;;;;;;;15.65;6.88;;;15.20;77.10;;;;;;4169723;28;20167;-59
2023/12/18 10:49:31;;;;;;;24.05;11.07;;;15.20;77.10;;;;;;4164582;28;20182;-65
2023/12/18 10:52:12;;;;;;;17.05;9.13;;;15.30;76.90;;;;;;4171376;28;20064;-60
2023/12/18 10:54:53;;;;;;;16.88;10.75;;;15.40;77.20;;;;;;4176084;28;20048;-64
2023/12/18 10:57:34;;;;;;;;;;;15.50;77.60;;;;;;4175091;28;20063;-58
2023/12/18 11:00:18;;;;;;;14.25;9.18;;;15.50;77.80;;;;;;4182239;28;19992;-58
2023/12/18 11:03:02;;;;;;;23.40;10.10;;;15.50;78.00;;;;;;4183156;28;20136;-58
2023/12/18 11:05:43;;;;;;;20.40;10.20;;;15.50;78.20;;;;;;4173350;28;20267;-50
2023/12/18 11:08:25;;;;;;;26.50;11.48;;;15.60;79.40;;;;;;4181241;28;20166;-53
2023/12/18 11:11:07;;;;;;;16.42;9.63;;;15.70;79.00;;;;;;4171434;28;20080;-53
2023/12/18 11:14:03;;;;;;;22.92;10.52;;;15.70;79.70;;;;;;4172168;28;20052;-55
2023/12/18 11:16:59;;;;;;;20.90;9.52;;;15.80;79.00;;;;;;4175497;28;20116;-52
2023/12/18 11:19:47;;;;;;;22.63;9.48;;;15.80;78.80;;;;;;4177424;28;20052;-54
2023/12/18 11:22:40;;;;;;;17.13;9.20;;;15.70;78.30;;;;;;4169730;28;20096;-52
2023/12/18 11:25:21;;;;;;;23.15;10.13;;;15.70;78.50;;;;;;4176925;28;21034;-53
2023/12/18 11:28:04;;;;;;;22.90;10.63;;;15.70;78.90;;;;;;4179775;28;20063;-52
2023/12/18 11:30:46;;;;;;;19.88;10.13;;;15.60;79.20;;;;;;4167116;28;20068;-53
2023/12/18 11:33:28;;;;;;;18.63;10.38;;;15.60;79.50;;;;;;4181666;28;20044;-53
2023/12/18 11:36:17;;;;;;;20.05;9.60;;;15.50;79.90;;;;;;4167285;28;20102;-52
2023/12/18 11:38:58;;;;;;;21.50;11.02;;;15.50;80.30;;;;;;4173005;28;20068;-57
2023/12/18 11:41:41;;;;;;;18.38;10.07;;;15.50;80.50;;;;;;4165774;28;20052;-58
2023/12/18 11:44:28;;;;;;;18.80;10.35;;;15.40;80.50;;;;;;4171483;28;20056;-57
2023/12/18 11:47:09;;;;;;;18.90;9.55;;;15.40;81.80;;;;;;4176566;28;20060;-57
2023/12/18 11:49:52;;;;;;;21.85;9.98;;;15.30;81.30;;;;;;4178952;28;20126;-59
2023/12/18 11:52:33;;;;;;;18.65;11.07;;;15.30;81.40;;;;;;4165245;28;20048;-57
2023/12/18 11:55:14;;;;;;;19.50;8.93;;;15.30;81.50;;;;;;4174070;28;20056;-56
2023/12/18 11:57:55;;;;;;;;;;;15.30;81.90;;;;;;4173259;28;20101;-57
2023/12/18 12:00:38;;;;;;;20.77;9.35;;;15.20;82.80;;;;;;4178443;28;19936;-58
2023/12/18 12:03:19;;;;;;;17.33;10.75;;;15.20;82.30;;;;;;4169479;28;20051;-57
2023/12/18 12:06:03;;;;;;;;;;;15.10;82.50;;;;;;4170200;28;20060;-56
2023/12/18 12:08:48;;;;;;;24.35;10.50;;;15.10;83.00;;;;;;4172664;28;20390;-57
2023/12/18 12:11:29;;;;;;;18.42;9.13;;;15.20;83.40;;;;;;4171442;28;20051;-57
2023/12/18 12:14:10;;;;;;;19.50;9.43;;;15.30;82.90;;;;;;4174881;28;20063;-58
2023/12/18 12:17:02;;;;;;;19.33;9.98;;;15.30;82.70;;;;;;4182136;28;20109;-57
2023/12/18 12:19:43;;;;;;;20.92;10.82;;;15.30;82.40;;;;;;4182912;28;20134;-56
2023/12/18 12:22:28;;;;;;;18.30;9.88;;;15.40;82.60;;;;;;4180030;28;20048;-57
2023/12/18 12:25:09;;;;;;;20.30;9.65;;;15.40;82.40;;;;;;4170381;28;20091;-58
2023/12/18 12:27:50;;;;;;;16.92;10.90;;;15.50;82.40;;;;;;4173319;28;20504;-57
2023/12/18 12:30:32;;;;;;;16.73;9.13;;;15.50;82.20;;;;;;4168221;28;20059;-57
2023/12/18 12:33:13;;;;;;;17.67;9.18;;;15.50;81.90;;;;;;4174368;28;20056;-57
2023/12/18 12:35:54;;;;;;;18.85;10.70;;;15.50;81.90;;;;;;4174315;28;20055;-53
2023/12/18 12:38:38;;;;;;;25.67;9.68;;;15.50;82.00;;;;;;4173834;28;20052;-57
2023/12/18 12:41:19;;;;;;;19.15;8.50;;;15.50;81.90;;;;;;4169043;28;20524;-57
2023/12/18 12:44:00;;;;;;;14.35;9.68;;;15.50;81.90;;;;;;4171263;28;20056;-49
2023/12/18 12:46:41;;;;;;;18.88;10.13;;;15.40;81.90;;;;;;4174626;28;20104;-51
2023/12/18 12:49:23;;;;;;;19.77;9.35;;;15.40;82.30;;;;;;4176213;28;20094;-52
2023/12/18 12:52:04;;;;;;;14.43;9.60;;;15.40;82.30;;;;;;4184835;28;20056;-53
2023/12/18 12:54:47;;;;;;;;;;;15.30;82.40;;;;;;4169992;28;20198;-54
2023/12/18 12:57:29;;;;;;;14.70;8.85;;;15.30;82.80;;;;;;4174308;28;19947;-52
2023/12/18 13:00:11;;;;;;;19.67;9.88;;;15.30;82.90;;;;;;4178432;28;20087;-53
2023/12/18 13:02:52;;;;;;;16.15;8.15;;;15.20;83.20;;;;;;4167936;28;20048;-55
2023/12/18 13:05:33;;;;;;;11.30;7.07;;;15.20;83.40;;;;;;4169638;28;20198;-56
2023/12/18 13:08:14;;;;;;;17.65;5.43;;;15.20;83.50;;;;;;4175188;28;20056;-57
2023/12/18 13:10:57;;;;;;;14.30;7.18;;;15.10;82.70;;;;;;4169222;28;20055;-58
2023/12/18 13:13:40;;;;;;;13.60;8.15;;;15.10;82.00;;;;;;4169664;28;20404;-59
2023/12/18 13:16:21;;;;;;;22.15;5.25;;;15.00;81.90;;;;;;4170036;28;20499;-60
2023/12/18 13:19:02;;;;;;;16.65;8.07;;;15.00;81.90;;;;;;4170473;28;20186;-60
2023/12/18 13:21:43;;;;;;;15.60;7.65;;;15.00;82.00;;;;;;4168851;28;20607;-60
2023/12/18 13:24:24;;;;;;;23.38;7.95;;;14.90;81.80;;;;;;4182870;28;20064;-60
2023/12/18 13:27:07;;;;;;;16.05;6.55;;;14.90;81.60;;;;;;4177179;28;20459;-60
2023/12/18 13:29:48;;;;;;;16.42;7.70;;;14.90;81.40;;;;;;4172584;28;20063;-56
2023/12/18 13:32:28;;;;;;;18.15;7.65;;;14.90;81.40;;;;;;4177970;28;20213;-53
2023/12/18 13:35:10;;;;;;;16.20;9.07;;;14.80;81.20;;;;;;4165837;28;20102;-55
2023/12/18 13:37:51;;;;;;;16.75;9.68;;;14.80;81.20;;;;;;4170938;28;20044;-51
2023/12/18 13:40:32;;;;;;;18.73;9.57;;;14.80;81.90;;;;;;4168259;28;20061;-54
2023/12/18 13:43:15;;;;;;;20.83;9.85;;;14.80;82.50;;;;;;4166892;28;20985;-53
2023/12/18 13:45:56;;;;;;;16.63;9.32;;;14.80;82.70;;;;;;4177966;28;20407;-54
2023/12/18 13:48:37;;;;;;;20.13;9.38;;;14.90;82.50;;;;;;4169441;28;20489;-54
2023/12/18 13:51:18;;;;;;;17.15;9.32;;;14.90;82.40;;;;;;4179498;28;20054;-55
2023/12/18 13:53:59;;;;;;;19.42;9.90;;;15.00;82.70;;;;;;4173191;28;20079;-55